TimeMDT,TemperatureF,Dew PointF,Humidity,Sea Level PressureIn,VisibilityMPH,Wind Direction,Wind SpeedMPH,Gust SpeedMPH,PrecipitationIn,Events,Conditions,WindDirDegrees,DateUTC
12:53 AM,30.9,28.0,89,30.47,10.0,Calm,Calm,-,N/A,,Overcast,0,2012-10-05 06:53:00
1:53 AM,30.2,26.6,86,30.40,10.0,NE,3.5,-,N/A,,Overcast,40,2012-10-05 07:53:00
2:53 AM,28.0,24.1,85,30.47,10.0,East,4.6,-,N/A,,Mostly Cloudy,80,2012-10-05 08:53:00
3:53 AM,28.0,25.0,88,30.47,10.0,Calm,Calm,-,N/A,,Overcast,0,2012-10-05 09:53:00
4:53 AM,30.0,26.1,85,30.47,10.0,East,3.5,-,N/A,,Overcast,100,2012-10-05 10:53:00
5:53 AM,30.0,26.1,85,30.48,10.0,East,4.6,-,N/A,,Overcast,80,2012-10-05 11:53:00
6:53 AM,30.0,26.1,85,30.49,10.0,Calm,Calm,-,N/A,,Overcast,0,2012-10-05 12:53:00
7:53 AM,30.9,27.0,85,30.50,10.0,Calm,Calm,-,N/A,,Mostly Cloudy,0,2012-10-05 13:53:00
8:53 AM,34.0,26.1,73,30.52,10.0,Calm,Calm,-,N/A,,Clear,0,2012-10-05 14:53:00
9:53 AM,39.0,25.0,57,30.51,10.0,NNE,3.5,-,N/A,,Clear,30,2012-10-05 15:53:00
10:53 AM,39.2,21.2,49,30.44,10.0,NNW,6.9,-,N/A,,Clear,340,2012-10-05 16:53:00
11:53 AM,39.9,23.0,51,30.53,-9999.0,NNE,8.1,-,N/A,,Unknown,20,2012-10-05 17:53:00
12:53 PM,41.0,21.9,47,30.52,10.0,North,8.1,-,N/A,,Mostly Cloudy,350,2012-10-05 18:53:00
1:53 PM,42.1,21.9,45,30.49,10.0,NNE,11.5,-,N/A,,Partly Cloudy,20,2012-10-05 19:53:00
2:53 PM,43.0,21.0,42,30.48,10.0,North,8.1,-,N/A,,Clear,10,2012-10-05 20:53:00
3:53 PM,43.0,19.9,40,30.48,10.0,NNW,9.2,18.4,N/A,,Partly Cloudy,340,2012-10-05 21:53:00
4:53 PM,45.0,19.9,37,30.47,10.0,North,8.1,-,N/A,,Clear,350,2012-10-05 22:53:00
5:53 PM,42.1,19.9,41,30.48,10.0,North,9.2,-,N/A,,Clear,10,2012-10-05 23:53:00
6:53 PM,35.1,19.9,54,30.51,10.0,NNE,6.9,-,N/A,,Clear,20,2012-10-06 00:53:00
7:53 PM,30.0,19.9,66,30.52,10.0,Calm,Calm,-,N/A,,Clear,0,2012-10-06 01:53:00
8:53 PM,26.1,19.9,78,30.53,10.0,Calm,Calm,-,N/A,,Clear,0,2012-10-06 02:53:00
9:53 PM,26.1,19.0,75,30.53,10.0,Calm,Calm,-,N/A,,Clear,0,2012-10-06 03:53:00
10:53 PM,23.0,18.0,81,30.54,10.0,Calm,Calm,-,N/A,,Clear,0,2012-10-06 04:53:00
11:53 PM,21.0,17.1,85,30.45,10.0,WNW,3.5,-,N/A,,Clear,290,2012-10-06 05:53:00